88CA weather

Regional Medical Center San Jose H2 Heliport
San Jose, California, United States

Public forecast

Using degrees Fahrenheit for public forecast. Weather courtesy of forecast.io.

METAR (pilot weather report)

Report is more than 2 hours old.

Closest report is Reid-Hillview Airport of Santa Clara County, 2.2 nm (4.1 km) SE. Retrieved 2019/06/25 02:50 UTC (4 hours ago):

KRHV 250250Z 34007KT 10SM BKN180 25/09 A2983

TAF (pilot weather forecast)

Closest forecast is Norman Y. Mineta San Jose International Airport, 3.8 nm (7.1 km) W. Retrieved 2019/06/25 06:30 UTC (23 minutes ago):

TAF KSJC 250529Z 2506/2606 32006KT P6SM FEW050 SCT100 FM250900 26005KT P6SM FEW015 SCT200 FM251200 VRB03KT P6SM BKN015 FM251700 31004KT P6SM FEW015 FM252200 31011KT P6SM SCT200 FM260500 29007KT P6SM SCT200